sensor_id;sensor_type;location;lat;lon;timestamp;pressure;altitude;pressure_sealevel;temperature;humidity
60817;BME280;51921;51.518;-3.188;2024-02-26T00:01:14;99546.22;;;0.15;100.00
60817;BME280;51921;51.518;-3.188;2024-02-26T00:03:40;99559.38;;;-0.01;100.00
60817;BME280;51921;51.518;-3.188;2024-02-26T00:06:06;99580.11;;;0.20;100.00
60817;BME280;51921;51.518;-3.188;2024-02-26T00:08:31;99581.16;;;-0.26;100.00
60817;BME280;51921;51.518;-3.188;2024-02-26T00:10:57;99587.13;;;0.17;100.00
60817;BME280;51921;51.518;-3.188;2024-02-26T00:13:22;99599.31;;;0.23;100.00
60817;BME280;51921;51.518;-3.188;2024-02-26T00:15:48;99614.71;;;-0.12;100.00
60817;BME280;51921;51.518;-3.188;2024-02-26T00:18:14;99604.76;;;-0.18;100.00
60817;BME280;51921;51.518;-3.188;2024-02-26T00:20:40;99607.41;;;-0.30;100.00
60817;BME280;51921;51.518;-3.188;2024-02-26T00:23:05;99622.34;;;-0.29;100.00
60817;BME280;51921;51.518;-3.188;2024-02-26T00:25:32;99618.49;;;-0.24;100.00
60817;BME280;51921;51.518;-3.188;2024-02-26T00:27:56;99629.53;;;-0.14;100.00
60817;BME280;51921;51.518;-3.188;2024-02-26T00:30:22;99627.39;;;-0.19;100.00
60817;BME280;51921;51.518;-3.188;2024-02-26T00:32:48;99648.91;;;-0.24;100.00
60817;BME280;51921;51.518;-3.188;2024-02-26T00:35:13;99637.57;;;-0.41;100.00
60817;BME280;51921;51.518;-3.188;2024-02-26T00:37:39;99641.64;;;-0.66;100.00
60817;BME280;51921;51.518;-3.188;2024-02-26T00:40:06;99662.88;;;-0.14;100.00
60817;BME280;51921;51.518;-3.188;2024-02-26T00:42:30;99657.79;;;-0.29;100.00
60817;BME280;51921;51.518;-3.188;2024-02-26T00:44:56;99666.68;;;-0.32;100.00
60817;BME280;51921;51.518;-3.188;2024-02-26T00:47:21;99671.71;;;-0.54;100.00
60817;BME280;51921;51.518;-3.188;2024-02-26T00:49:47;99674.61;;;-0.32;100.00
60817;BME280;51921;51.518;-3.188;2024-02-26T00:52:13;99693.03;;;-0.36;100.00
60817;BME280;51921;51.518;-3.188;2024-02-26T00:54:38;99690.63;;;-0.59;100.00
60817;BME280;51921;51.518;-3.188;2024-02-26T00:57:05;99693.34;;;-0.39;100.00
60817;BME280;51921;51.518;-3.188;2024-02-26T00:59:29;99720.01;;;-0.10;100.00
60817;BME280;51921;51.518;-3.188;2024-02-26T01:01:55;99733.70;;;-0.29;100.00
60817;BME280;51921;51.518;-3.188;2024-02-26T01:04:21;99745.10;;;-0.21;100.00
60817;BME280;51921;51.518;-3.188;2024-02-26T01:06:47;99718.90;;;-0.16;100.00
60817;BME280;51921;51.518;-3.188;2024-02-26T01:09:12;99743.15;;;-0.51;100.00
60817;BME280;51921;51.518;-3.188;2024-02-26T01:11:38;99745.65;;;-0.60;100.00
60817;BME280;51921;51.518;-3.188;2024-02-26T01:14:03;99746.87;;;-0.38;100.00
60817;BME280;51921;51.518;-3.188;2024-02-26T01:16:29;99765.25;;;-0.07;100.00
60817;BME280;51921;51.518;-3.188;2024-02-26T01:18:55;99770.22;;;-0.23;100.00
60817;BME280;51921;51.518;-3.188;2024-02-26T01:21:20;99765.74;;;-0.11;100.00
60817;BME280;51921;51.518;-3.188;2024-02-26T01:23:46;99767.64;;;-0.02;100.00
60817;BME280;51921;51.518;-3.188;2024-02-26T01:26:12;99774.22;;;-0.41;100.00
60817;BME280;51921;51.518;-3.188;2024-02-26T01:28:37;99768.42;;;-0.36;100.00
60817;BME280;51921;51.518;-3.188;2024-02-26T01:31:04;99767.23;;;-0.52;100.00
60817;BME280;51921;51.518;-3.188;2024-02-26T01:33:29;99786.67;;;-0.24;100.00
60817;BME280;51921;51.518;-3.188;2024-02-26T01:35:54;99785.04;;;-0.22;100.00
60817;BME280;51921;51.518;-3.188;2024-02-26T01:38:20;99791.73;;;-0.30;100.00
60817;BME280;51921;51.518;-3.188;2024-02-26T01:40:45;99798.75;;;0.03;100.00
60817;BME280;51921;51.518;-3.188;2024-02-26T01:43:11;99807.26;;;-0.51;100.00
60817;BME280;51921;51.518;-3.188;2024-02-26T01:45:37;99817.07;;;-0.05;100.00
60817;BME280;51921;51.518;-3.188;2024-02-26T01:48:03;99831.94;;;-0.27;100.00
60817;BME280;51921;51.518;-3.188;2024-02-26T01:50:29;99825.03;;;-0.39;100.00
60817;BME280;51921;51.518;-3.188;2024-02-26T01:52:54;99829.60;;;-0.70;100.00
60817;BME280;51921;51.518;-3.188;2024-02-26T01:55:20;99834.79;;;-0.25;100.00
60817;BME280;51921;51.518;-3.188;2024-02-26T01:57:47;99839.93;;;-0.31;100.00
60817;BME280;51921;51.518;-3.188;2024-02-26T02:00:12;99838.38;;;-0.36;100.00
60817;BME280;51921;51.518;-3.188;2024-02-26T02:02:37;99850.21;;;-0.30;100.00
60817;BME280;51921;51.518;-3.188;2024-02-26T02:05:03;99853.87;;;-0.39;100.00
60817;BME280;51921;51.518;-3.188;2024-02-26T02:07:28;99862.08;;;-0.36;100.00
60817;BME280;51921;51.518;-3.188;2024-02-26T02:09:53;99858.25;;;-0.10;100.00
60817;BME280;51921;51.518;-3.188;2024-02-26T02:12:19;99867.79;;;-0.22;100.00
60817;BME280;51921;51.518;-3.188;2024-02-26T02:14:44;99866.72;;;-0.26;100.00
60817;BME280;51921;51.518;-3.188;2024-02-26T02:17:10;99869.48;;;-0.57;100.00
60817;BME280;51921;51.518;-3.188;2024-02-26T02:19:36;99888.44;;;-0.45;100.00
60817;BME280;51921;51.518;-3.188;2024-02-26T02:22:02;99899.35;;;-0.22;100.00
60817;BME280;51921;51.518;-3.188;2024-02-26T02:24:27;99882.44;;;-0.24;100.00
60817;BME280;51921;51.518;-3.188;2024-02-26T02:26:53;99883.23;;;-0.41;100.00
60817;BME280;51921;51.518;-3.188;2024-02-26T02:29:18;99893.39;;;-0.33;100.00
60817;BME280;51921;51.518;-3.188;2024-02-26T02:31:44;99900.05;;;-0.29;100.00
60817;BME280;51921;51.518;-3.188;2024-02-26T02:34:10;99907.05;;;-0.32;100.00
60817;BME280;51921;51.518;-3.188;2024-02-26T02:36:35;99908.35;;;-0.46;100.00
60817;BME280;51921;51.518;-3.188;2024-02-26T02:39:01;99927.96;;;-0.24;100.00
60817;BME280;51921;51.518;-3.188;2024-02-26T02:41:26;99935.14;;;-0.51;100.00
60817;BME280;51921;51.518;-3.188;2024-02-26T02:43:52;99950.46;;;-0.15;100.00
60817;BME280;51921;51.518;-3.188;2024-02-26T02:46:17;99949.10;;;-0.56;100.00
60817;BME280;51921;51.518;-3.188;2024-02-26T02:48:43;99946.69;;;-0.41;100.00
60817;BME280;51921;51.518;-3.188;2024-02-26T02:51:09;99946.77;;;-0.42;100.00
60817;BME280;51921;51.518;-3.188;2024-02-26T02:53:35;99950.46;;;-0.85;100.00
60817;BME280;51921;51.518;-3.188;2024-02-26T02:56:02;99961.36;;;-0.74;100.00
60817;BME280;51921;51.518;-3.188;2024-02-26T02:58:26;99961.63;;;-0.82;100.00
60817;BME280;51921;51.518;-3.188;2024-02-26T03:00:52;99967.28;;;-0.45;100.00
60817;BME280;51921;51.518;-3.188;2024-02-26T03:05:43;99978.23;;;-0.52;100.00
60817;BME280;51921;51.518;-3.188;2024-02-26T03:08:09;99980.73;;;-0.46;100.00
60817;BME280;51921;51.518;-3.188;2024-02-26T03:10:36;100011.09;;;-0.30;100.00
60817;BME280;51921;51.518;-3.188;2024-02-26T03:13:00;100005.71;;;-0.55;100.00
60817;BME280;51921;51.518;-3.188;2024-02-26T03:15:26;99990.61;;;-0.27;100.00
60817;BME280;51921;51.518;-3.188;2024-02-26T03:17:52;100001.54;;;-0.09;100.00
60817;BME280;51921;51.518;-3.188;2024-02-26T03:20:17;100046.32;;;-0.54;100.00
60817;BME280;51921;51.518;-3.188;2024-02-26T03:22:42;99996.92;;;-0.57;100.00
60817;BME280;51921;51.518;-3.188;2024-02-26T03:25:08;100001.07;;;-0.23;100.00
60817;BME280;51921;51.518;-3.188;2024-02-26T03:27:34;100017.61;;;-0.54;100.00
60817;BME280;51921;51.518;-3.188;2024-02-26T03:29:59;100022.63;;;-0.48;100.00
60817;BME280;51921;51.518;-3.188;2024-02-26T03:32:25;100062.36;;;-0.22;100.00
60817;BME280;51921;51.518;-3.188;2024-02-26T03:34:51;100023.86;;;-0.66;100.00
60817;BME280;51921;51.518;-3.188;2024-02-26T03:37:16;100029.35;;;-0.60;100.00
60817;BME280;51921;51.518;-3.188;2024-02-26T03:39:42;100034.01;;;-0.44;100.00
60817;BME280;51921;51.518;-3.188;2024-02-26T03:42:07;100036.40;;;-0.59;100.00
60817;BME280;51921;51.518;-3.188;2024-02-26T03:44:33;100041.89;;;-0.59;100.00
60817;BME280;51921;51.518;-3.188;2024-02-26T03:46:59;100055.25;;;-0.19;100.00
60817;BME280;51921;51.518;-3.188;2024-02-26T03:49:24;100032.02;;;-0.64;100.00
60817;BME280;51921;51.518;-3.188;2024-02-26T03:51:50;100061.78;;;-0.38;100.00
60817;BME280;51921;51.518;-3.188;2024-02-26T03:54:16;100063.06;;;-0.29;100.00
60817;BME280;51921;51.518;-3.188;2024-02-26T03:56:41;100068.61;;;-0.65;100.00
60817;BME280;51921;51.518;-3.188;2024-02-26T03:59:07;100076.82;;;-0.56;100.00
60817;BME280;51921;51.518;-3.188;2024-02-26T04:01:33;100081.75;;;-0.49;100.00
60817;BME280;51921;51.518;-3.188;2024-02-26T04:03:58;100095.10;;;-0.46;100.00
60817;BME280;51921;51.518;-3.188;2024-02-26T04:06:24;100106.64;;;-0.51;100.00
60817;BME280;51921;51.518;-3.188;2024-02-26T04:08:50;100093.94;;;-0.43;100.00
60817;BME280;51921;51.518;-3.188;2024-02-26T04:11:15;100142.32;;;-0.41;100.00
60817;BME280;51921;51.518;-3.188;2024-02-26T04:13:41;100127.08;;;-0.37;100.00
60817;BME280;51921;51.518;-3.188;2024-02-26T04:16:07;100144.37;;;-0.52;100.00
60817;BME280;51921;51.518;-3.188;2024-02-26T04:18:32;100147.70;;;-0.88;100.00
60817;BME280;51921;51.518;-3.188;2024-02-26T04:20:58;100148.34;;;-0.84;100.00
60817;BME280;51921;51.518;-3.188;2024-02-26T04:23:24;100157.40;;;-0.79;100.00
60817;BME280;51921;51.518;-3.188;2024-02-26T04:25:49;100171.45;;;-0.46;100.00
60817;BME280;51921;51.518;-3.188;2024-02-26T04:28:15;100165.33;;;-0.63;100.00
60817;BME280;51921;51.518;-3.188;2024-02-26T04:30:40;100179.30;;;-0.79;100.00
60817;BME280;51921;51.518;-3.188;2024-02-26T04:33:06;100189.02;;;-0.61;100.00
60817;BME280;51921;51.518;-3.188;2024-02-26T04:35:32;100193.06;;;-0.65;100.00
60817;BME280;51921;51.518;-3.188;2024-02-26T04:37:57;100196.88;;;-0.62;100.00
60817;BME280;51921;51.518;-3.188;2024-02-26T04:40:23;100196.67;;;-0.75;100.00
60817;BME280;51921;51.518;-3.188;2024-02-26T04:42:49;100215.24;;;-0.57;100.00
60817;BME280;51921;51.518;-3.188;2024-02-26T04:45:15;100211.52;;;-0.71;100.00
60817;BME280;51921;51.518;-3.188;2024-02-26T04:47:41;100226.75;;;-0.73;100.00
60817;BME280;51921;51.518;-3.188;2024-02-26T04:50:06;100230.13;;;-0.62;100.00
60817;BME280;51921;51.518;-3.188;2024-02-26T04:52:31;100224.62;;;-0.81;100.00
60817;BME280;51921;51.518;-3.188;2024-02-26T04:54:57;100250.49;;;-0.31;100.00
60817;BME280;51921;51.518;-3.188;2024-02-26T04:57:22;100248.48;;;-0.46;100.00
60817;BME280;51921;51.518;-3.188;2024-02-26T04:59:48;100251.96;;;-0.72;100.00
60817;BME280;51921;51.518;-3.188;2024-02-26T05:02:14;100272.60;;;-0.65;100.00
60817;BME280;51921;51.518;-3.188;2024-02-26T05:04:39;100269.61;;;-0.51;100.00
60817;BME280;51921;51.518;-3.188;2024-02-26T05:07:05;100285.96;;;-0.68;100.00
60817;BME280;51921;51.518;-3.188;2024-02-26T05:09:32;100287.96;;;-0.34;100.00
60817;BME280;51921;51.518;-3.188;2024-02-26T05:11:57;100290.04;;;-0.57;100.00
60817;BME280;51921;51.518;-3.188;2024-02-26T05:14:22;100315.16;;;-0.58;100.00
60817;BME280;51921;51.518;-3.188;2024-02-26T05:16:48;100305.17;;;-0.56;100.00
60817;BME280;51921;51.518;-3.188;2024-02-26T05:19:13;100308.87;;;-0.60;100.00
60817;BME280;51921;51.518;-3.188;2024-02-26T05:21:39;100316.39;;;-0.69;100.00
60817;BME280;51921;51.518;-3.188;2024-02-26T05:24:05;100320.72;;;-0.40;100.00
60817;BME280;51921;51.518;-3.188;2024-02-26T05:26:30;100332.31;;;-0.72;100.00
60817;BME280;51921;51.518;-3.188;2024-02-26T05:28:56;100334.37;;;-0.63;100.00
60817;BME280;51921;51.518;-3.188;2024-02-26T05:31:22;100359.37;;;-0.47;100.00
60817;BME280;51921;51.518;-3.188;2024-02-26T05:33:47;100354.20;;;-0.91;100.00
60817;BME280;51921;51.518;-3.188;2024-02-26T05:36:18;100350.03;;;-0.86;100.00
60817;BME280;51921;51.518;-3.188;2024-02-26T05:38:38;100367.96;;;-0.69;100.00
60817;BME280;51921;51.518;-3.188;2024-02-26T05:41:04;100367.95;;;-0.78;100.00
60817;BME280;51921;51.518;-3.188;2024-02-26T05:43:30;100380.65;;;-0.93;100.00
60817;BME280;51921;51.518;-3.188;2024-02-26T05:45:55;100402.09;;;-0.70;100.00
60817;BME280;51921;51.518;-3.188;2024-02-26T05:48:21;100398.93;;;-0.78;100.00
60817;BME280;51921;51.518;-3.188;2024-02-26T05:50:47;100400.45;;;-0.74;100.00
60817;BME280;51921;51.518;-3.188;2024-02-26T05:53:13;100407.51;;;-1.20;100.00
60817;BME280;51921;51.518;-3.188;2024-02-26T05:55:38;100408.98;;;-0.87;100.00
60817;BME280;51921;51.518;-3.188;2024-02-26T05:58:04;100425.39;;;-1.03;100.00
60817;BME280;51921;51.518;-3.188;2024-02-26T06:00:29;100398.31;;;-0.79;100.00
60817;BME280;51921;51.518;-3.188;2024-02-26T06:02:54;100441.24;;;-0.93;100.00
60817;BME280;51921;51.518;-3.188;2024-02-26T06:05:20;100441.03;;;-0.81;100.00
60817;BME280;51921;51.518;-3.188;2024-02-26T06:07:52;100451.18;;;-0.93;100.00
60817;BME280;51921;51.518;-3.188;2024-02-26T06:10:12;100446.26;;;-0.80;100.00
60817;BME280;51921;51.518;-3.188;2024-02-26T06:12:38;100468.80;;;-0.80;100.00
60817;BME280;51921;51.518;-3.188;2024-02-26T06:15:03;100467.21;;;-1.06;100.00
60817;BME280;51921;51.518;-3.188;2024-02-26T06:17:29;100476.03;;;-0.97;100.00
60817;BME280;51921;51.518;-3.188;2024-02-26T06:19:54;100473.01;;;-0.91;100.00
60817;BME280;51921;51.518;-3.188;2024-02-26T06:22:20;100500.52;;;-0.70;100.00
60817;BME280;51921;51.518;-3.188;2024-02-26T06:24:46;100501.46;;;-0.70;100.00
60817;BME280;51921;51.518;-3.188;2024-02-26T06:27:13;100502.56;;;-0.95;100.00
60817;BME280;51921;51.518;-3.188;2024-02-26T06:29:37;100505.87;;;-0.90;100.00
60817;BME280;51921;51.518;-3.188;2024-02-26T06:34:28;100508.82;;;-0.78;100.00
60817;BME280;51921;51.518;-3.188;2024-02-26T06:36:54;100514.64;;;-0.68;100.00
60817;BME280;51921;51.518;-3.188;2024-02-26T06:39:19;100510.48;;;-1.01;100.00
60817;BME280;51921;51.518;-3.188;2024-02-26T06:41:45;100517.32;;;-0.48;100.00
60817;BME280;51921;51.518;-3.188;2024-02-26T06:44:10;100533.35;;;-0.73;100.00
60817;BME280;51921;51.518;-3.188;2024-02-26T06:46:36;100552.53;;;-0.42;100.00
60817;BME280;51921;51.518;-3.188;2024-02-26T06:49:02;100570.26;;;-0.74;100.00
60817;BME280;51921;51.518;-3.188;2024-02-26T06:51:27;100571.76;;;-0.53;100.00
60817;BME280;51921;51.518;-3.188;2024-02-26T06:58:44;100565.99;;;-0.89;100.00
60817;BME280;51921;51.518;-3.188;2024-02-26T07:01:12;100567.42;;;-0.83;100.00
60817;BME280;51921;51.518;-3.188;2024-02-26T07:03:35;100576.64;;;-1.10;100.00
60817;BME280;51921;51.518;-3.188;2024-02-26T07:06:02;100601.78;;;-0.77;100.00
60817;BME280;51921;51.518;-3.188;2024-02-26T07:08:27;100604.36;;;-0.96;100.00
60817;BME280;51921;51.518;-3.188;2024-02-26T07:10:53;100601.84;;;-0.92;100.00
60817;BME280;51921;51.518;-3.188;2024-02-26T07:13:18;100620.76;;;-0.93;100.00
60817;BME280;51921;51.518;-3.188;2024-02-26T07:15:44;100612.65;;;-0.82;100.00
60817;BME280;51921;51.518;-3.188;2024-02-26T07:18:10;100608.91;;;-1.04;100.00
60817;BME280;51921;51.518;-3.188;2024-02-26T07:23:01;100631.89;;;-1.02;100.00
60817;BME280;51921;51.518;-3.188;2024-02-26T07:25:27;100628.54;;;-0.82;100.00
60817;BME280;51921;51.518;-3.188;2024-02-26T07:27:52;100639.83;;;-0.63;100.00
60817;BME280;51921;51.518;-3.188;2024-02-26T07:30:18;100649.02;;;-0.63;100.00
60817;BME280;51921;51.518;-3.188;2024-02-26T07:32:43;100654.44;;;-0.81;100.00
60817;BME280;51921;51.518;-3.188;2024-02-26T07:35:09;100654.49;;;-0.43;100.00
60817;BME280;51921;51.518;-3.188;2024-02-26T07:37:35;100653.37;;;-0.24;100.00
60817;BME280;51921;51.518;-3.188;2024-02-26T07:40:00;100649.43;;;-0.75;100.00
60817;BME280;51921;51.518;-3.188;2024-02-26T07:42:26;100663.76;;;-0.74;100.00
60817;BME280;51921;51.518;-3.188;2024-02-26T07:44:52;100652.95;;;-0.76;100.00
60817;BME280;51921;51.518;-3.188;2024-02-26T07:47:17;100669.10;;;-0.56;100.00
60817;BME280;51921;51.518;-3.188;2024-02-26T07:49:43;100676.80;;;-0.67;100.00
60817;BME280;51921;51.518;-3.188;2024-02-26T07:52:08;100684.89;;;-0.44;100.00
60817;BME280;51921;51.518;-3.188;2024-02-26T07:54:34;100681.31;;;-0.46;100.00
60817;BME280;51921;51.518;-3.188;2024-02-26T07:57:00;100693.00;;;-0.69;100.00
60817;BME280;51921;51.518;-3.188;2024-02-26T07:59:25;100709.78;;;-0.53;100.00
60817;BME280;51921;51.518;-3.188;2024-02-26T08:01:51;100720.95;;;-0.61;100.00
60817;BME280;51921;51.518;-3.188;2024-02-26T08:04:17;100723.67;;;-0.26;100.00
60817;BME280;51921;51.518;-3.188;2024-02-26T08:06:43;100724.60;;;-0.28;100.00
60817;BME280;51921;51.518;-3.188;2024-02-26T08:11:34;100747.01;;;-0.22;100.00
60817;BME280;51921;51.518;-3.188;2024-02-26T08:14:00;100761.96;;;-0.42;100.00
60817;BME280;51921;51.518;-3.188;2024-02-26T08:16:25;100742.31;;;-0.64;100.00
60817;BME280;51921;51.518;-3.188;2024-02-26T08:18:51;100742.14;;;-0.58;100.00
60817;BME280;51921;51.518;-3.188;2024-02-26T08:21:16;100748.19;;;-0.36;100.00
60817;BME280;51921;51.518;-3.188;2024-02-26T08:23:43;100744.89;;;-0.08;100.00
60817;BME280;51921;51.518;-3.188;2024-02-26T08:26:08;100744.83;;;0.01;100.00
60817;BME280;51921;51.518;-3.188;2024-02-26T08:33:25;100770.10;;;-0.02;100.00
60817;BME280;51921;51.518;-3.188;2024-02-26T08:35:50;100776.57;;;-0.04;100.00
60817;BME280;51921;51.518;-3.188;2024-02-26T08:38:16;100791.89;;;0.10;100.00
60817;BME280;51921;51.518;-3.188;2024-02-26T08:40:47;100789.32;;;-0.01;100.00
60817;BME280;51921;51.518;-3.188;2024-02-26T08:43:07;100809.11;;;0.20;100.00
60817;BME280;51921;51.518;-3.188;2024-02-26T08:45:33;100780.82;;;0.43;100.00
60817;BME280;51921;51.518;-3.188;2024-02-26T08:48:04;100800.05;;;0.31;100.00
60817;BME280;51921;51.518;-3.188;2024-02-26T08:50:24;100806.41;;;0.30;100.00
60817;BME280;51921;51.518;-3.188;2024-02-26T08:52:49;100800.37;;;0.14;100.00
60817;BME280;51921;51.518;-3.188;2024-02-26T08:55:15;100818.02;;;0.43;100.00
60817;BME280;51921;51.518;-3.188;2024-02-26T08:57:41;100829.78;;;0.64;100.00
60817;BME280;51921;51.518;-3.188;2024-02-26T09:00:07;100825.61;;;0.45;100.00
60817;BME280;51921;51.518;-3.188;2024-02-26T09:02:32;100829.29;;;0.33;100.00
60817;BME280;51921;51.518;-3.188;2024-02-26T09:09:49;100833.67;;;0.59;100.00
60817;BME280;51921;51.518;-3.188;2024-02-26T09:12:20;100836.81;;;0.42;100.00
60817;BME280;51921;51.518;-3.188;2024-02-26T09:14:40;100841.89;;;0.61;100.00
60817;BME280;51921;51.518;-3.188;2024-02-26T09:17:05;100847.14;;;0.78;100.00
60817;BME280;51921;51.518;-3.188;2024-02-26T09:19:32;100855.93;;;0.79;100.00
60817;BME280;51921;51.518;-3.188;2024-02-26T09:21:57;100876.81;;;0.67;100.00
60817;BME280;51921;51.518;-3.188;2024-02-26T09:24:22;100850.84;;;0.86;100.00
60817;BME280;51921;51.518;-3.188;2024-02-26T09:26:48;100879.20;;;0.48;100.00
60817;BME280;51921;51.518;-3.188;2024-02-26T09:29:16;100889.23;;;0.75;100.00
60817;BME280;51921;51.518;-3.188;2024-02-26T09:31:39;100880.00;;;0.54;100.00
60817;BME280;51921;51.518;-3.188;2024-02-26T09:34:06;100868.47;;;0.90;100.00
60817;BME280;51921;51.518;-3.188;2024-02-26T09:36:30;100882.26;;;0.65;100.00
60817;BME280;51921;51.518;-3.188;2024-02-26T09:38:56;100913.68;;;1.05;100.00
60817;BME280;51921;51.518;-3.188;2024-02-26T09:41:22;100907.12;;;1.04;100.00
60817;BME280;51921;51.518;-3.188;2024-02-26T09:43:48;100894.61;;;0.91;100.00
60817;BME280;51921;51.518;-3.188;2024-02-26T09:48:38;100903.53;;;1.00;100.00
60817;BME280;51921;51.518;-3.188;2024-02-26T09:51:04;100903.16;;;1.23;100.00
60817;BME280;51921;51.518;-3.188;2024-02-26T09:53:30;100914.59;;;0.94;100.00
60817;BME280;51921;51.518;-3.188;2024-02-26T09:55:56;100910.91;;;1.16;100.00
60817;BME280;51921;51.518;-3.188;2024-02-26T09:58:21;100916.63;;;1.05;100.00
60817;BME280;51921;51.518;-3.188;2024-02-26T10:00:49;100905.86;;;1.44;100.00
60817;BME280;51921;51.518;-3.188;2024-02-26T10:03:14;100923.98;;;1.10;100.00
60817;BME280;51921;51.518;-3.188;2024-02-26T10:05:37;100924.89;;;1.54;100.00
60817;BME280;51921;51.518;-3.188;2024-02-26T10:08:04;100928.89;;;1.41;100.00
60817;BME280;51921;51.518;-3.188;2024-02-26T10:10:29;100902.41;;;1.89;100.00
60817;BME280;51921;51.518;-3.188;2024-02-26T10:12:54;100956.22;;;1.16;100.00
60817;BME280;51921;51.518;-3.188;2024-02-26T10:15:20;100953.41;;;1.41;100.00
60817;BME280;51921;51.518;-3.188;2024-02-26T10:17:45;100948.86;;;1.84;100.00
60817;BME280;51921;51.518;-3.188;2024-02-26T10:20:13;100935.62;;;1.61;100.00
60817;BME280;51921;51.518;-3.188;2024-02-26T10:22:36;100959.79;;;1.54;100.00
60817;BME280;51921;51.518;-3.188;2024-02-26T10:25:02;100955.84;;;1.68;100.00
60817;BME280;51921;51.518;-3.188;2024-02-26T10:27:28;100963.43;;;1.81;100.00
60817;BME280;51921;51.518;-3.188;2024-02-26T10:29:53;100970.40;;;1.48;100.00
60817;BME280;51921;51.518;-3.188;2024-02-26T10:32:18;100983.16;;;1.56;100.00
60817;BME280;51921;51.518;-3.188;2024-02-26T10:34:59;100998.40;;;1.66;100.00
60817;BME280;51921;51.518;-3.188;2024-02-26T10:37:10;101006.64;;;1.53;100.00
60817;BME280;51921;51.518;-3.188;2024-02-26T10:39:37;101007.31;;;1.67;100.00
60817;BME280;51921;51.518;-3.188;2024-02-26T10:42:01;101009.63;;;1.56;100.00
60817;BME280;51921;51.518;-3.188;2024-02-26T10:44:27;101007.24;;;1.55;100.00
60817;BME280;51921;51.518;-3.188;2024-02-26T10:46:57;101021.14;;;1.89;100.00
60817;BME280;51921;51.518;-3.188;2024-02-26T10:49:18;101026.35;;;1.35;100.00
60817;BME280;51921;51.518;-3.188;2024-02-26T10:51:55;101014.78;;;1.37;100.00
60817;BME280;51921;51.518;-3.188;2024-02-26T10:54:12;101006.05;;;2.00;100.00
60817;BME280;51921;51.518;-3.188;2024-02-26T10:56:35;101022.59;;;2.06;100.00
60817;BME280;51921;51.518;-3.188;2024-02-26T10:59:02;101007.88;;;2.04;100.00
60817;BME280;51921;51.518;-3.188;2024-02-26T11:01:27;101018.76;;;1.78;100.00
60817;BME280;51921;51.518;-3.188;2024-02-26T11:03:53;101031.78;;;1.72;100.00
60817;BME280;51921;51.518;-3.188;2024-02-26T11:08:43;101046.12;;;1.82;100.00
60817;BME280;51921;51.518;-3.188;2024-02-26T11:11:09;101041.52;;;1.69;100.00
60817;BME280;51921;51.518;-3.188;2024-02-26T11:13:34;101022.84;;;2.35;100.00
60817;BME280;51921;51.518;-3.188;2024-02-26T11:16:01;101050.87;;;1.77;100.00
60817;BME280;51921;51.518;-3.188;2024-02-26T11:18:26;101042.16;;;1.72;100.00
60817;BME280;51921;51.518;-3.188;2024-02-26T11:20:51;101040.93;;;1.70;100.00
60817;BME280;51921;51.518;-3.188;2024-02-26T11:23:16;101061.07;;;1.67;100.00
60817;BME280;51921;51.518;-3.188;2024-02-26T11:25:42;101058.48;;;1.70;100.00
60817;BME280;51921;51.518;-3.188;2024-02-26T11:28:12;101071.05;;;2.06;100.00
60817;BME280;51921;51.518;-3.188;2024-02-26T11:30:35;101075.24;;;1.82;100.00
60817;BME280;51921;51.518;-3.188;2024-02-26T11:32:59;101109.90;;;1.89;100.00
60817;BME280;51921;51.518;-3.188;2024-02-26T11:35:24;101080.07;;;1.94;100.00
60817;BME280;51921;51.518;-3.188;2024-02-26T11:37:53;101090.53;;;2.02;100.00
60817;BME280;51921;51.518;-3.188;2024-02-26T11:40:15;101061.10;;;2.18;100.00
60817;BME280;51921;51.518;-3.188;2024-02-26T11:42:44;101096.83;;;1.89;100.00
60817;BME280;51921;51.518;-3.188;2024-02-26T11:47:35;101081.06;;;2.04;100.00
60817;BME280;51921;51.518;-3.188;2024-02-26T11:49:58;101085.50;;;2.26;100.00
60817;BME280;51921;51.518;-3.188;2024-02-26T11:52:23;101102.85;;;2.12;100.00
60817;BME280;51921;51.518;-3.188;2024-02-26T11:54:49;101104.54;;;2.30;100.00
60817;BME280;51921;51.518;-3.188;2024-02-26T11:57:21;101088.95;;;2.50;100.00
60817;BME280;51921;51.518;-3.188;2024-02-26T11:59:40;101113.34;;;1.96;100.00
60817;BME280;51921;51.518;-3.188;2024-02-26T12:02:05;101118.90;;;2.25;100.00
60817;BME280;51921;51.518;-3.188;2024-02-26T12:04:31;101133.45;;;2.36;100.00
60817;BME280;51921;51.518;-3.188;2024-02-26T12:06:57;101128.09;;;1.93;100.00
60817;BME280;51921;51.518;-3.188;2024-02-26T12:09:33;101132.76;;;2.17;100.00
60817;BME280;51921;51.518;-3.188;2024-02-26T12:11:49;101127.92;;;1.87;100.00
60817;BME280;51921;51.518;-3.188;2024-02-26T12:14:18;101130.56;;;1.64;100.00
60817;BME280;51921;51.518;-3.188;2024-02-26T12:16:46;101138.58;;;2.04;100.00
60817;BME280;51921;51.518;-3.188;2024-02-26T12:19:08;101151.76;;;2.18;100.00
60817;BME280;51921;51.518;-3.188;2024-02-26T12:21:32;101143.39;;;2.13;100.00
60817;BME280;51921;51.518;-3.188;2024-02-26T12:23:56;101143.33;;;2.10;100.00
60817;BME280;51921;51.518;-3.188;2024-02-26T12:26:21;101158.38;;;2.18;100.00
60817;BME280;51921;51.518;-3.188;2024-02-26T12:28:52;101143.97;;;2.52;100.00
60817;BME280;51921;51.518;-3.188;2024-02-26T12:31:12;101150.71;;;2.75;100.00
60817;BME280;51921;51.518;-3.188;2024-02-26T12:33:38;101158.30;;;2.46;100.00
60817;BME280;51921;51.518;-3.188;2024-02-26T12:36:04;101158.30;;;2.23;100.00
60817;BME280;51921;51.518;-3.188;2024-02-26T12:38:29;101161.78;;;2.66;100.00
60817;BME280;51921;51.518;-3.188;2024-02-26T12:40:55;101162.44;;;2.44;100.00
60817;BME280;51921;51.518;-3.188;2024-02-26T12:43:20;101168.08;;;2.34;100.00
60817;BME280;51921;51.518;-3.188;2024-02-26T12:45:46;101165.82;;;2.38;100.00
60817;BME280;51921;51.518;-3.188;2024-02-26T12:48:12;101163.19;;;2.68;98.96
60817;BME280;51921;51.518;-3.188;2024-02-26T12:50:37;101180.21;;;2.24;99.92
60817;BME280;51921;51.518;-3.188;2024-02-26T12:53:02;101168.77;;;2.43;100.00
60817;BME280;51921;51.518;-3.188;2024-02-26T12:55:28;101171.38;;;2.41;100.00
60817;BME280;51921;51.518;-3.188;2024-02-26T12:57:55;101176.87;;;2.26;100.00